Terminal Aerodrome Forecast
Issued by NWS

Home | Current Version | Previous Version | Text Only | Print | Product List | Glossary On
Versions: 1 2 3 4 5 6 7 8 9 10 11 12
000
FTUS44 KOUN 172333
TAFPNC
TAF
KPNC 172333Z 1800/1824 VRB03KT P6SM BKN200
     FM181200 18006KT P6SM OVC040
     FM181800 17010KT P6SM VCSH BKN025=

USA.gov is the U.S. government's official web portal to all federal, state and local government web resources and services.